This is the latest recevied weather packets stored in our database for station/object W4MLN-1. If no packets are shown the sender has not sent any weather packets the latest 10 day(s).
| Time | Temp. | Humidity | Pressure | Rain* | Wind** | Luminosity | Snow |
|---|---|---|---|---|---|---|---|
| 1777810258 | 2.78° C | 79% | 1018.2 hPa | 0 mm | - | 47 W/m² | - |
| 1777809958 | 2.22° C | 81% | 1018.2 hPa | 0 mm | - | 44 W/m² | - |
| 1777809658 | 1.67° C | 85% | 1018 hPa | 0 mm | - | 44 W/m² | - |
| 1777809358 | 0.56° C | 91% | 1018 hPa | 0 mm | - | 42 W/m² | - |
| 1777809059 | 0° C | 96% | 1017.9 hPa | 0 mm | - | 40 W/m² | - |
| 1777808758 | -0.56° C | 98% | 1017.9 hPa | 0 mm | - | 39 W/m² | - |
| 1777808459 | -0.56° C | 98% | 1017.8 hPa | 0 mm | - | 38 W/m² | - |
| 1777808159 | -0.56° C | 99% | 1017.8 hPa | 0 mm | - | 37 W/m² | - |
| 1777807858 | -1.11° C | 99% | 1017.7 hPa | 0 mm | - | 35 W/m² | - |
| 1777807544 | -1.11° C | 100% | 1017.6 hPa | 0 mm | - | 33 W/m² | - |
| 1777807244 | -1.67° C | 100% | 1017.5 hPa | 0 mm | - | 31 W/m² | - |
| 1777806944 | -1.67° C | 100% | 1017.5 hPa | 0 mm | - | 29 W/m² | - |
| 1777806644 | -1.67° C | 100% | 1017.5 hPa | 0 mm | - | 27 W/m² | - |
| 1777806344 | -1.67° C | 100% | 1017.4 hPa | 0 mm | - | 24 W/m² | - |
| 1777806044 | -1.67° C | 100% | 1017.4 hPa | 0 mm | - | 21 W/m² | - |
| 1777805745 | -1.67° C | 100% | 1017.3 hPa | 0 mm | - | 19 W/m² | - |
| 1777805444 | -1.67° C | 99% | 1017.3 hPa | 0 mm | - | 15 W/m² | - |
| 1777805144 | -1.67° C | 99% | 1017.1 hPa | 0 mm | - | 12 W/m² | - |
| 1777804845 | -1.67° C | 100% | 1017.1 hPa | 0 mm | - | 9 W/m² | - |
| 1777804543 | -1.67° C | 100% | 1017 hPa | 0 mm | - | 5 W/m² | - |
| 1777804243 | -1.67° C | 100% | 1016.9 hPa | 0 mm | - | 3 W/m² | - |
| 1777803942 | -1.67° C | 100% | 1016.9 hPa | 0 mm | - | 2 W/m² | - |
| 1777803643 | -1.67° C | 100% | 1016.9 hPa | 0 mm | - | 0 W/m² | - |
| 1777803343 | -1.67° C | 100% | 1016.9 hPa | 0 mm | - | 0 W/m² | - |
| 1777803030 | -1.67° C | 100% | 1016.9 hPa | 0 mm | - | 0 W/m² | - |
* Rain latest hour (hover to see other rain measurements)
** Current wind speed in m/s (hover to see current wind gust speed)